Time;durP1;ratioP1;P1;durP2;ratioP2;P2;SDS_P1;SDS_P2;PMS_P1;PMS_P2;Temp;Humidity;BMP_temperature;BMP_pressure;BME280_temperature;BME280_humidity;BME280_pressure;Samples;Min_cycle;Max_cycle;Signal;HPM_P1;HPM_P2
2022/09/18 00:02:13;;;;;;;7.97;0.80;;;11.80;99.90;;;;;;5034681;28;20026;-40
2022/09/18 00:04:39;;;;;;;11.10;0.90;;;11.80;99.90;;;;;;5034690;28;20413;-40
2022/09/18 00:07:06;;;;;;;2.25;0.80;;;11.80;99.90;;;;;;5031261;28;20478;-35
2022/09/18 00:09:31;;;;;;;5.72;1.08;;;11.80;99.90;;;;;;5031300;28;20466;-40
2022/09/18 00:11:58;;;;;;;3.63;0.70;;;11.70;99.90;;;;;;5029410;28;20151;-42
2022/09/18 00:14:24;;;;;;;10.57;0.80;;;11.60;99.90;;;;;;5034319;28;20029;-39
2022/09/18 00:16:50;;;;;;;1.92;0.80;;;11.60;99.90;;;;;;5034929;28;20017;-38
2022/09/18 00:19:16;;;;;;;7.18;1.25;;;11.60;99.90;;;;;;5032341;28;20052;-40
2022/09/18 00:21:48;;;;;;;5.40;1.23;;;11.70;99.90;;;;;;5033748;28;20022;-39
2022/09/18 00:24:16;;;;;;;4.55;0.45;;;11.70;99.90;;;;;;5031939;28;20039;-39
2022/09/18 00:26:42;;;;;;;2.45;0.60;;;11.70;99.90;;;;;;5032185;28;20079;-41
2022/09/18 00:29:10;;;;;;;5.22;0.88;;;11.70;99.90;;;;;;5035212;28;20021;-50
2022/09/18 00:31:36;;;;;;;2.25;0.68;;;11.80;99.90;;;;;;5034239;28;20121;-40
2022/09/18 00:34:06;;;;;;;8.95;1.30;;;11.80;99.90;;;;;;5035348;28;20449;-40
2022/09/18 00:36:32;;;;;;;1.27;0.82;;;11.80;99.90;;;;;;5035366;28;20473;-39
2022/09/18 00:38:58;;;;;;;1.08;0.60;;;11.80;99.90;;;;;;5033847;28;20473;-61
2022/09/18 00:41:31;;;;;;;6.25;1.38;;;11.80;99.90;;;;;;5029746;28;20047;-41
2022/09/18 00:44:35;;;;;;;6.93;1.33;;;11.90;99.90;;;;;;5034712;28;20029;-40
2022/09/18 00:47:09;;;;;;;11.65;1.05;;;11.90;99.90;;;;;;5014745;28;20514;-40
2022/09/18 00:49:57;;;;;;;3.45;0.93;;;11.90;99.90;;;;;;5027978;28;20035;-40
2022/09/18 00:52:27;;;;;;;12.20;1.20;;;11.90;99.90;;;;;;5026545;28;20544;-57
2022/09/18 00:54:59;;;;;;;6.57;1.70;;;11.90;99.90;;;;;;5027651;28;20021;-58
2022/09/18 00:57:31;;;;;;;5.80;0.98;;;12.00;99.90;;;;;;5031045;28;20026;-41
2022/09/18 00:59:59;;;;;;;11.35;1.40;;;12.00;99.90;;;;;;5032167;28;20414;-39
2022/09/18 01:02:24;;;;;;;7.82;1.05;;;12.00;99.90;;;;;;5031674;28;20474;-40
2022/09/18 01:04:50;;;;;;;9.77;0.90;;;11.90;99.90;;;;;;5032693;28;20040;-39
2022/09/18 01:07:40;;;;;;;7.03;0.73;;;11.90;99.90;;;;;;5034410;28;20045;-41
2022/09/18 01:10:45;;;;;;;6.75;0.65;;;11.90;99.90;;;;;;5026565;28;20041;-42
2022/09/18 01:13:38;;;;;;;5.57;0.90;;;11.90;99.90;;;;;;5026568;28;20578;-42
2022/09/18 01:16:32;;;;;;;9.88;1.30;;;11.80;99.90;;;;;;5022568;28;20036;-42
2022/09/18 01:19:19;;;;;;;4.82;1.00;;;11.90;99.90;;;;;;5034040;28;20029;-40
2022/09/18 01:21:55;;;;;;;7.60;1.17;;;11.90;99.90;;;;;;5034010;28;20029;-40
2022/09/18 01:24:54;;;;;;;6.28;0.95;;;11.90;99.90;;;;;;5030388;28;20049;-39
2022/09/18 01:27:32;;;;;;;8.35;1.45;;;11.90;99.90;;;;;;5030997;28;20030;-39
2022/09/18 01:30:06;;;;;;;10.70;0.90;;;11.90;99.90;;;;;;5023410;28;20433;-41
2022/09/18 01:32:37;;;;;;;2.97;0.70;;;12.00;99.90;;;;;;5031374;28;20019;-40
2022/09/18 01:35:20;;;;;;;4.65;1.33;;;11.90;99.90;;;;;;5032600;28;20080;-58
2022/09/18 01:38:05;;;;;;;3.90;0.82;;;11.90;99.90;;;;;;5032085;28;20037;-37
2022/09/18 01:40:37;;;;;;;8.25;0.80;;;12.00;99.90;;;;;;4992564;28;1086669;-38
2022/09/18 01:43:08;;;;;;;5.30;0.63;;;12.00;99.90;;;;;;5031258;28;20065;-38
2022/09/18 01:45:39;;;;;;;1.95;0.50;;;12.10;99.90;;;;;;5032703;28;20053;-38
2022/09/18 01:48:13;;;;;;;5.63;0.63;;;12.10;99.90;;;;;;5033318;28;20030;-40
2022/09/18 01:50:46;;;;;;;5.53;0.82;;;12.10;99.90;;;;;;5031141;28;20029;-39
2022/09/18 01:53:27;;;;;;;7.65;1.38;;;12.10;99.90;;;;;;5030453;28;20103;-40
2022/09/18 01:56:10;;;;;;;11.50;1.92;;;12.10;99.90;;;;;;5030449;28;20037;-38
2022/09/18 01:58:36;;;;;;;5.45;0.80;;;12.10;99.90;;;;;;5032408;28;20559;-39
2022/09/18 02:01:06;;;;;;;8.98;0.98;;;12.00;99.90;;;;;;5032103;28;20025;-39
2022/09/18 02:03:41;;;;;;;11.07;1.67;;;12.00;99.90;;;;;;5034195;28;20044;-41
2022/09/18 02:06:19;;;;;;;16.15;2.88;;;11.90;99.90;;;;;;5032634;28;20033;-40
2022/09/18 02:08:52;;;;;;;;;;;11.80;99.90;;;;;;5032076;28;20482;-38
2022/09/18 02:11:19;;;;;;;9.10;0.85;;;11.80;99.90;;;;;;5025257;28;19909;-38
2022/09/18 02:13:47;;;;;;;4.15;0.93;;;11.70;99.90;;;;;;5034071;28;20033;-38
2022/09/18 02:16:20;;;;;;;3.55;1.02;;;11.70;99.90;;;;;;5030452;28;20029;-38
2022/09/18 02:18:51;;;;;;;6.35;0.88;;;11.80;99.90;;;;;;5016854;28;20812;-38
2022/09/18 02:21:23;;;;;;;3.78;0.77;;;11.80;99.90;;;;;;5033916;28;20076;-43
2022/09/18 02:23:50;;;;;;;10.25;1.05;;;11.80;99.90;;;;;;5046265;28;20049;-38
2022/09/18 02:26:18;;;;;;;7.68;0.68;;;11.70;99.90;;;;;;5030995;28;20040;-38
2022/09/18 02:28:45;;;;;;;4.43;1.25;;;11.70;99.90;;;;;;5029599;28;20377;-41
2022/09/18 02:31:11;;;;;;;2.92;0.77;;;11.80;99.90;;;;;;5029198;28;20048;-38
2022/09/18 02:33:38;;;;;;;7.15;1.02;;;11.80;99.90;;;;;;5032028;28;20068;-46
2022/09/18 02:36:04;;;;;;;5.57;0.52;;;11.80;99.90;;;;;;5033664;28;20029;-39
2022/09/18 02:38:39;;;;;;;9.10;1.45;;;11.80;99.90;;;;;;5032284;28;20485;-38
2022/09/18 02:41:15;;;;;;;4.38;0.90;;;11.70;99.90;;;;;;5030371;28;20053;-38
2022/09/18 02:43:54;;;;;;;3.92;0.40;;;11.60;99.90;;;;;;5032622;28;20105;-38
2022/09/18 02:46:34;;;;;;;7.93;0.50;;;11.60;99.90;;;;;;5029151;28;20045;-41
2022/09/18 02:49:32;;;;;;;9.93;1.15;;;11.70;99.90;;;;;;5033091;28;20470;-45
2022/09/18 02:52:01;;;;;;;3.33;0.57;;;11.60;99.90;;;;;;5033643;28;20026;-38
2022/09/18 02:54:53;;;;;;;4.13;0.80;;;11.60;99.90;;;;;;5028450;28;20033;-39
2022/09/18 02:57:31;;;;;;;6.00;0.50;;;11.70;99.90;;;;;;5030264;28;20045;-40
2022/09/18 02:59:59;;;;;;;5.35;0.60;;;11.70;99.90;;;;;;5031742;28;20074;-39
2022/09/18 03:02:24;;;;;;;;;;;11.70;99.90;;;;;;5047380;28;20037;-39
2022/09/18 03:04:51;;;;;;;2.53;0.45;;;11.70;99.90;;;;;;5032678;28;19909;-40
2022/09/18 03:07:17;;;;;;;7.13;1.38;;;11.70;99.90;;;;;;5031453;28;20072;-41
2022/09/18 03:09:43;;;;;;;0.95;0.35;;;11.70;99.90;;;;;;5030415;28;20026;-41
2022/09/18 03:12:10;;;;;;;4.78;0.60;;;11.80;99.90;;;;;;5028812;28;20025;-40
2022/09/18 03:14:35;;;;;;;3.63;0.65;;;11.80;99.90;;;;;;5032398;28;20549;-40
2022/09/18 03:17:02;;;;;;;2.63;0.77;;;11.80;99.90;;;;;;5030088;28;20167;-39
2022/09/18 03:19:27;;;;;;;3.40;0.93;;;11.80;99.90;;;;;;5031308;28;20477;-42
2022/09/18 03:21:53;;;;;;;5.20;0.93;;;11.80;99.90;;;;;;5031143;28;20037;-40
2022/09/18 03:24:19;;;;;;;7.00;0.50;;;11.70;99.90;;;;;;5027830;28;20064;-40
2022/09/18 03:26:46;;;;;;;1.02;0.55;;;11.70;99.90;;;;;;5031763;28;20025;-39
2022/09/18 03:29:12;;;;;;;3.22;0.35;;;11.70;99.90;;;;;;5026191;28;20042;-40
2022/09/18 03:31:38;;;;;;;4.00;0.68;;;11.70;99.90;;;;;;5024033;28;20389;-38
2022/09/18 03:34:04;;;;;;;5.22;0.63;;;11.70;99.90;;;;;;5032692;28;20021;-44
2022/09/18 03:36:30;;;;;;;3.35;0.98;;;11.70;99.90;;;;;;5032295;28;20523;-41
2022/09/18 03:38:56;;;;;;;1.55;0.73;;;11.80;99.90;;;;;;5029141;28;20024;-38
2022/09/18 03:41:22;;;;;;;4.20;0.60;;;11.80;99.90;;;;;;5030801;28;20087;-39
2022/09/18 03:43:47;;;;;;;12.80;0.75;;;11.80;99.90;;;;;;5032179;28;20029;-39
2022/09/18 03:46:13;;;;;;;4.32;0.60;;;11.90;99.90;;;;;;5045485;28;20032;-39
2022/09/18 03:48:39;;;;;;;6.53;1.10;;;11.90;99.90;;;;;;5028716;28;20053;-39
2022/09/18 03:51:04;;;;;;;4.55;0.50;;;11.90;99.90;;;;;;5027290;28;20091;-40
2022/09/18 03:53:30;;;;;;;5.93;1.02;;;11.90;99.90;;;;;;5030471;28;20022;-38
2022/09/18 03:55:56;;;;;;;9.93;0.95;;;11.80;99.90;;;;;;5026129;28;20021;-39
2022/09/18 03:58:21;;;;;;;7.90;0.70;;;11.80;99.90;;;;;;5032566;28;20100;-41
2022/09/18 04:00:47;;;;;;;1.65;0.50;;;11.80;99.90;;;;;;5030559;28;20457;-39
2022/09/18 04:03:12;;;;;;;4.13;0.43;;;11.80;99.90;;;;;;5030391;28;20456;-38
2022/09/18 04:05:57;;;;;;;1.05;0.47;;;11.80;99.90;;;;;;5047211;28;20632;-38
2022/09/18 04:08:22;;;;;;;7.50;1.15;;;11.80;99.90;;;;;;5030006;28;20022;-38
2022/09/18 04:10:51;;;;;;;0.98;0.30;;;11.80;99.90;;;;;;5028790;28;20084;-39
2022/09/18 04:13:17;;;;;;;3.50;0.82;;;11.80;99.90;;;;;;5031875;28;20421;-39
2022/09/18 04:15:44;;;;;;;4.53;0.60;;;11.80;99.90;;;;;;5028795;28;20030;-40
2022/09/18 04:18:10;;;;;;;1.37;0.57;;;11.80;99.90;;;;;;5029991;28;20168;-64
2022/09/18 04:20:36;;;;;;;0.73;0.43;;;11.80;99.90;;;;;;5022824;28;20410;-40
2022/09/18 04:23:02;;;;;;;1.27;0.43;;;11.90;99.90;;;;;;5023556;28;20041;-39
2022/09/18 04:25:27;;;;;;;1.30;0.30;;;11.80;99.90;;;;;;5026974;28;20719;-39
2022/09/18 04:27:53;;;;;;;11.82;0.85;;;11.80;99.90;;;;;;5030212;28;20017;-40
2022/09/18 04:30:19;;;;;;;8.48;0.90;;;11.80;99.90;;;;;;5048693;28;20370;-40
2022/09/18 04:32:44;;;;;;;2.10;1.10;;;11.80;99.90;;;;;;5033278;28;20017;-40
2022/09/18 04:35:10;;;;;;;3.80;0.82;;;11.80;99.90;;;;;;5033371;28;20539;-38
2022/09/18 04:37:36;;;;;;;6.55;0.50;;;11.80;99.90;;;;;;5034010;28;20036;-39
2022/09/18 04:40:03;;;;;;;3.35;0.75;;;11.80;99.90;;;;;;5031652;28;20041;-39
2022/09/18 04:42:29;;;;;;;10.07;1.33;;;11.80;99.90;;;;;;5032073;28;20056;-40
2022/09/18 04:44:55;;;;;;;5.22;1.05;;;11.80;99.90;;;;;;5032964;28;20280;-40
2022/09/18 04:47:21;;;;;;;11.50;1.25;;;11.80;99.90;;;;;;5035580;28;20037;-54
2022/09/18 04:49:49;;;;;;;1.42;0.55;;;11.80;99.90;;;;;;5031515;28;20029;-39
2022/09/18 04:52:14;;;;;;;1.92;0.73;;;11.80;99.90;;;;;;5033623;28;20025;-40
2022/09/18 04:54:40;;;;;;;5.45;0.32;;;11.80;99.90;;;;;;5031510;28;20531;-40
2022/09/18 04:57:06;;;;;;;0.60;0.57;;;11.70;99.90;;;;;;5030317;28;20074;-39
2022/09/18 04:59:31;;;;;;;5.90;0.70;;;11.70;99.90;;;;;;5033829;28;20064;-39
2022/09/18 05:01:58;;;;;;;8.45;0.90;;;11.70;99.90;;;;;;5033507;28;20042;-39
2022/09/18 05:04:24;;;;;;;4.65;0.75;;;11.60;99.90;;;;;;5033392;28;20025;-38
2022/09/18 05:06:49;;;;;;;3.83;0.55;;;11.60;99.90;;;;;;5034057;28;20070;-41
2022/09/18 05:09:15;;;;;;;1.83;0.40;;;11.60;99.90;;;;;;5029679;28;20029;-39
2022/09/18 05:11:41;;;;;;;0.35;0.20;;;11.60;99.90;;;;;;5030048;28;20465;-39
2022/09/18 05:14:07;;;;;;;1.00;0.30;;;11.50;99.90;;;;;;5033394;28;20048;-40
2022/09/18 05:16:33;;;;;;;3.53;0.50;;;11.50;99.90;;;;;;5034472;28;20548;-32
2022/09/18 05:18:59;;;;;;;0.50;0.30;;;11.50;99.90;;;;;;5033057;28;20121;-33
2022/09/18 05:21:24;;;;;;;1.70;0.40;;;11.50;99.90;;;;;;5024781;28;20066;-35
2022/09/18 05:23:50;;;;;;;3.47;0.90;;;11.50;99.90;;;;;;5028536;28;20079;-32
2022/09/18 05:26:16;;;;;;;2.00;0.52;;;11.50;99.90;;;;;;5031342;28;20475;-34
2022/09/18 05:28:41;;;;;;;2.03;0.52;;;11.60;99.90;;;;;;5025321;28;20025;-34
2022/09/18 05:31:07;;;;;;;8.90;0.60;;;11.60;99.90;;;;;;5034806;28;20029;-32
2022/09/18 05:33:33;;;;;;;2.28;0.43;;;11.60;99.90;;;;;;5031975;28;20038;-35
2022/09/18 05:35:59;;;;;;;2.38;0.60;;;11.60;99.90;;;;;;5032754;28;20025;-33
2022/09/18 05:38:25;;;;;;;0.77;0.30;;;11.70;99.90;;;;;;5031590;28;20079;-34
2022/09/18 05:40:51;;;;;;;1.90;0.52;;;11.70;99.90;;;;;;5031133;28;20053;-35
2022/09/18 05:43:17;;;;;;;0.25;0.20;;;11.70;99.90;;;;;;5033867;28;20100;-34
2022/09/18 05:45:43;;;;;;;2.35;0.20;;;11.70;99.90;;;;;;5032839;28;20061;-35
2022/09/18 05:48:11;;;;;;;1.65;0.38;;;11.70;99.90;;;;;;5033894;28;20497;-31
2022/09/18 05:50:37;;;;;;;1.73;0.40;;;11.70;99.90;;;;;;5032437;28;20121;-37
2022/09/18 05:53:05;;;;;;;1.02;0.40;;;11.70;99.90;;;;;;5032830;28;20354;-33
2022/09/18 05:55:32;;;;;;;3.15;0.30;;;11.70;99.90;;;;;;5029769;28;20388;-34
2022/09/18 05:58:00;;;;;;;3.30;0.57;;;11.70;99.90;;;;;;5033016;28;20570;-34
2022/09/18 06:00:26;;;;;;;;;;;11.70;99.90;;;;;;5033437;28;20036;-39
2022/09/18 06:02:58;;;;;;;4.75;0.30;;;11.70;99.90;;;;;;5032522;28;20417;-36
2022/09/18 06:05:24;;;;;;;5.07;0.52;;;11.80;99.90;;;;;;5033181;28;20026;-33
2022/09/18 06:07:50;;;;;;;1.45;0.40;;;11.80;99.90;;;;;;5030567;28;20033;-37
2022/09/18 06:10:18;;;;;;;2.78;0.98;;;11.80;99.90;;;;;;5030460;28;20022;-34
2022/09/18 06:12:44;;;;;;;1.80;0.47;;;11.80;99.90;;;;;;5031954;28;20477;-33
2022/09/18 06:15:10;;;;;;;4.00;0.70;;;11.80;99.90;;;;;;5030032;28;20032;-54
2022/09/18 06:17:36;;;;;;;1.00;0.30;;;11.90;99.90;;;;;;5034095;28;20025;-39
2022/09/18 06:20:02;;;;;;;1.88;0.55;;;11.90;99.90;;;;;;5032131;28;20500;-39
2022/09/18 06:22:28;;;;;;;8.02;0.57;;;11.90;99.90;;;;;;5023845;28;20021;-39
2022/09/18 06:24:53;;;;;;;1.75;0.55;;;11.90;99.90;;;;;;5025197;28;20475;-35
2022/09/18 06:27:19;;;;;;;0.57;0.28;;;11.90;99.90;;;;;;5013868;28;20065;-35
2022/09/18 06:29:45;;;;;;;2.92;0.50;;;11.90;99.90;;;;;;5020777;28;20022;-36
2022/09/18 06:32:10;;;;;;;2.40;0.40;;;11.90;99.90;;;;;;5033742;28;20493;-32
2022/09/18 06:34:36;;;;;;;1.83;0.32;;;12.00;99.90;;;;;;5032798;28;20025;-39
2022/09/18 06:37:02;;;;;;;1.13;0.47;;;12.00;99.90;;;;;;5033586;28;20033;-34
2022/09/18 06:39:28;;;;;;;4.68;0.40;;;12.00;99.90;;;;;;5026488;28;20406;-34
2022/09/18 06:41:54;;;;;;;2.47;0.30;;;12.10;99.90;;;;;;5025925;28;20021;-37
2022/09/18 06:44:19;;;;;;;0.68;0.28;;;12.20;99.90;;;;;;5021318;28;20549;-31
2022/09/18 06:46:46;;;;;;;1.55;0.52;;;12.20;99.90;;;;;;5027383;28;20033;-30
2022/09/18 06:49:12;;;;;;;4.57;0.38;;;12.20;99.90;;;;;;5032744;28;20040;-33
2022/09/18 06:51:39;;;;;;;9.32;0.85;;;12.30;99.90;;;;;;5031304;28;20034;-36
2022/09/18 06:54:05;;;;;;;0.95;0.25;;;12.30;99.90;;;;;;5027329;28;20092;-33
2022/09/18 06:56:30;;;;;;;2.05;0.30;;;12.40;99.90;;;;;;5029382;28;20033;-34
2022/09/18 06:59:00;;;;;;;3.67;0.32;;;12.40;99.90;;;;;;5047056;28;20079;-32
2022/09/18 07:01:25;;;;;;;2.35;0.90;;;12.40;99.90;;;;;;5031418;28;20033;-34
2022/09/18 07:03:51;;;;;;;7.43;1.15;;;12.50;99.90;;;;;;5030509;28;20030;-34
2022/09/18 07:06:16;;;;;;;2.92;0.93;;;12.50;99.90;;;;;;5029449;28;20036;-38
2022/09/18 07:08:42;;;;;;;8.50;0.70;;;12.50;99.90;;;;;;5027313;28;20029;-38
2022/09/18 07:11:08;;;;;;;1.65;0.38;;;12.50;99.90;;;;;;5031515;28;20107;-39
2022/09/18 07:13:36;;;;;;;3.22;0.75;;;12.60;99.90;;;;;;5032878;28;20049;-34
2022/09/18 07:16:02;;;;;;;4.25;0.30;;;12.60;99.90;;;;;;5031797;28;20067;-40
2022/09/18 07:18:28;;;;;;;1.67;0.50;;;12.70;99.90;;;;;;5031834;28;20543;-40
2022/09/18 07:20:54;;;;;;;0.57;0.40;;;12.70;99.90;;;;;;5030212;28;20039;-38
2022/09/18 07:23:20;;;;;;;1.40;0.47;;;12.80;99.90;;;;;;5031293;28;20132;-38
2022/09/18 07:25:48;;;;;;;1.17;0.40;;;12.90;99.90;;;;;;5030111;28;20025;-38
2022/09/18 07:28:13;;;;;;;1.85;0.63;;;12.90;99.90;;;;;;5031397;28;20025;-39
2022/09/18 07:30:40;;;;;;;3.28;0.70;;;12.90;99.90;;;;;;5031994;28;20091;-40
2022/09/18 07:33:07;;;;;;;0.32;0.32;;;13.00;99.90;;;;;;5031530;28;20385;-40
2022/09/18 07:35:33;;;;;;;1.95;0.40;;;13.00;99.90;;;;;;5031959;28;20033;-39
2022/09/18 07:38:00;;;;;;;2.55;0.50;;;13.00;99.90;;;;;;5028361;28;20482;-40
2022/09/18 07:40:26;;;;;;;3.80;0.52;;;13.00;99.90;;;;;;5027986;28;20038;-41
2022/09/18 07:42:59;;;;;;;5.75;0.63;;;13.10;99.90;;;;;;5031776;28;20029;-40
2022/09/18 07:45:24;;;;;;;2.92;0.35;;;13.10;99.90;;;;;;5030972;28;20029;-39
2022/09/18 07:47:50;;;;;;;3.22;0.60;;;13.10;99.90;;;;;;5032499;28;20029;-39
2022/09/18 07:50:16;;;;;;;5.18;0.82;;;13.10;99.90;;;;;;5042374;28;20101;-41
2022/09/18 07:53:01;;;;;;;1.67;0.60;;;13.10;99.90;;;;;;5030054;28;20029;-38
2022/09/18 07:55:27;;;;;;;2.67;0.40;;;13.20;99.90;;;;;;5030001;28;20022;-40
2022/09/18 07:57:54;;;;;;;1.50;0.35;;;13.20;99.90;;;;;;5030986;28;20031;-38
2022/09/18 08:00:20;;;;;;;3.13;0.50;;;13.30;99.90;;;;;;5023781;28;20399;-48
2022/09/18 08:02:46;;;;;;;3.80;1.25;;;13.20;99.90;;;;;;5029114;28;20025;-42
2022/09/18 08:05:12;;;;;;;4.05;0.52;;;13.20;99.90;;;;;;5045525;28;20041;-44
2022/09/18 08:07:37;;;;;;;1.02;0.40;;;13.30;99.90;;;;;;5032904;28;20026;-40
2022/09/18 08:10:04;;;;;;;3.85;0.60;;;13.30;99.90;;;;;;5031706;28;20026;-41
2022/09/18 08:12:31;;;;;;;4.40;0.88;;;13.10;99.90;;;;;;5030718;28;20022;-39
2022/09/18 08:14:57;;;;;;;7.32;0.50;;;13.10;99.90;;;;;;5036636;28;20021;-42
2022/09/18 08:17:23;;;;;;;2.70;0.32;;;13.00;99.90;;;;;;5035729;28;20040;-40
2022/09/18 08:19:49;;;;;;;2.50;0.40;;;12.90;99.90;;;;;;5035452;28;20060;-41
2022/09/18 08:22:14;;;;;;;3.55;0.35;;;12.90;99.90;;;;;;5043597;28;20060;-44
2022/09/18 08:24:40;;;;;;;3.63;0.45;;;12.80;99.90;;;;;;5033637;28;20036;-41
2022/09/18 08:27:06;;;;;;;2.35;0.30;;;12.80;99.90;;;;;;5030516;28;20505;-43
2022/09/18 08:29:31;;;;;;;3.00;0.50;;;12.80;99.90;;;;;;5037328;28;20079;-48
2022/09/18 08:31:57;;;;;;;3.70;0.32;;;12.80;99.90;;;;;;5036250;28;20577;-40
2022/09/18 08:34:23;;;;;;;2.10;0.38;;;12.90;99.90;;;;;;5035641;28;20026;-40
2022/09/18 08:36:48;;;;;;;4.13;0.57;;;12.90;99.90;;;;;;5034068;28;20087;-39
2022/09/18 08:39:14;;;;;;;4.78;0.52;;;13.00;99.90;;;;;;5027297;28;20144;-43
2022/09/18 08:41:49;;;;;;;0.20;0.20;;;13.00;99.90;;;;;;5017308;28;20041;-42
2022/09/18 08:44:26;;;;;;;6.30;2.00;;;13.10;99.90;;;;;;5015942;28;20434;-40
2022/09/18 08:47:06;;;;;;;1.95;0.65;;;13.20;99.90;;;;;;5031921;28;20033;-46
2022/09/18 08:49:34;;;;;;;3.30;0.60;;;13.10;99.90;;;;;;5027758;28;20029;-42
2022/09/18 08:52:12;;;;;;;5.47;0.68;;;13.00;99.90;;;;;;5035531;28;20097;-40
2022/09/18 08:54:54;;;;;;;0.43;0.43;;;12.90;99.90;;;;;;5032187;28;20208;-43
2022/09/18 08:57:33;;;;;;;6.35;0.60;;;12.90;99.90;;;;;;5035403;28;20091;-44
2022/09/18 09:00:05;;;;;;;3.88;0.52;;;12.80;99.90;;;;;;5027641;28;20037;-39
2022/09/18 09:02:41;;;;;;;5.07;0.50;;;12.80;99.90;;;;;;5024661;28;20386;-43
2022/09/18 09:05:12;;;;;;;7.28;0.50;;;12.80;99.90;;;;;;5027800;28;20033;-41
2022/09/18 09:07:55;;;;;;;4.75;0.65;;;12.80;99.90;;;;;;5035656;28;20500;-41
2022/09/18 09:10:43;;;;;;;1.65;0.40;;;12.70;99.90;;;;;;5035084;28;20057;-43
2022/09/18 09:13:24;;;;;;;3.10;0.47;;;12.80;99.90;;;;;;5035028;28;20033;-43
2022/09/18 09:16:08;;;;;;;7.50;0.73;;;12.70;99.90;;;;;;5042651;28;20037;-39
2022/09/18 09:18:56;;;;;;;4.68;0.80;;;12.70;99.90;;;;;;5028006;28;20478;-48
2022/09/18 09:21:44;;;;;;;6.57;0.75;;;12.70;99.90;;;;;;5029786;28;20104;-53
2022/09/18 09:24:31;;;;;;;5.03;0.52;;;12.70;99.90;;;;;;5028687;28;20029;-34
2022/09/18 09:27:01;;;;;;;2.25;0.40;;;12.70;99.90;;;;;;5030312;28;20029;-42
2022/09/18 09:29:30;;;;;;;7.88;0.88;;;12.90;99.90;;;;;;5033001;28;20100;-38
2022/09/18 09:32:06;;;;;;;4.28;0.60;;;13.00;99.90;;;;;;5049142;28;20412;-48
2022/09/18 09:34:52;;;;;;;6.05;0.70;;;13.00;99.90;;;;;;5027406;28;20022;-40
2022/09/18 09:37:27;;;;;;;6.22;0.60;;;13.10;99.90;;;;;;5031456;28;20037;-43
2022/09/18 09:39:58;;;;;;;1.73;0.50;;;13.00;99.90;;;;;;5033945;28;20053;-45
2022/09/18 09:42:35;;;;;;;8.27;0.70;;;13.00;99.90;;;;;;5029904;28;20033;-41
2022/09/18 09:45:24;;;;;;;7.03;0.70;;;13.00;99.90;;;;;;5030948;28;20045;-43
2022/09/18 09:47:59;;;;;;;1.67;0.47;;;13.10;99.90;;;;;;5033940;28;20025;-40
2022/09/18 09:50:54;;;;;;;7.43;0.93;;;13.00;99.90;;;;;;5027830;28;20072;-42
2022/09/18 09:53:24;;;;;;;8.98;0.95;;;12.90;99.90;;;;;;5034339;28;20497;-42
2022/09/18 09:56:05;;;;;;;3.55;0.70;;;12.80;99.90;;;;;;5034944;28;20514;-41
2022/09/18 09:58:45;;;;;;;4.70;0.50;;;12.90;99.90;;;;;;5031849;28;20077;-42
2022/09/18 10:01:20;;;;;;;7.32;0.60;;;12.90;99.90;;;;;;5030936;28;20029;-47
2022/09/18 10:04:12;;;;;;;5.35;0.65;;;12.90;99.90;;;;;;5029420;28;20041;-40
2022/09/18 10:06:50;;;;;;;10.10;0.70;;;13.00;99.90;;;;;;5029946;28;20084;-41
2022/09/18 10:09:19;;;;;;;8.20;0.80;;;13.00;99.90;;;;;;5024650;28;20072;-41
2022/09/18 10:11:55;;;;;;;4.20;0.60;;;13.00;99.90;;;;;;5028894;28;20304;-41
2022/09/18 10:14:25;;;;;;;10.70;0.70;;;13.00;99.90;;;;;;5032677;28;20385;-40
2022/09/18 10:16:53;;;;;;;6.90;1.52;;;13.00;99.90;;;;;;5033797;28;20370;-39
2022/09/18 10:19:20;;;;;;;;;;;13.00;99.90;;;;;;5029510;28;20026;-40
2022/09/18 10:21:48;;;;;;;5.47;0.45;;;13.10;99.90;;;;;;5033126;28;19909;-41
2022/09/18 10:24:21;;;;;;;2.28;0.63;;;13.20;99.90;;;;;;5033037;28;20044;-41
2022/09/18 10:26:52;;;;;;;3.22;0.68;;;13.20;99.90;;;;;;5032056;28;20060;-41
2022/09/18 10:29:18;;;;;;;3.70;1.08;;;13.30;99.90;;;;;;5027735;28;20017;-39
2022/09/18 10:31:50;;;;;;;4.78;0.65;;;13.30;99.90;;;;;;5028916;28;20044;-42
2022/09/18 10:34:39;;;;;;;2.90;0.45;;;13.30;99.90;;;;;;5032269;28;20032;-40
2022/09/18 10:37:35;;;;;;;3.17;0.35;;;13.40;99.90;;;;;;5033611;28;20021;-42
2022/09/18 10:40:01;;;;;;;2.67;0.68;;;13.40;99.90;;;;;;5028052;28;20056;-41
2022/09/18 10:42:35;;;;;;;4.38;1.08;;;13.40;99.90;;;;;;5032519;28;20105;-41
2022/09/18 10:45:04;;;;;;;5.22;1.38;;;13.30;99.90;;;;;;5030242;28;20040;-40
2022/09/18 10:47:37;;;;;;;2.08;0.75;;;13.20;99.90;;;;;;5032126;28;20047;-40
2022/09/18 10:50:06;;;;;;;5.03;0.60;;;13.10;99.90;;;;;;5028271;28;20360;-41
2022/09/18 10:52:37;;;;;;;8.07;0.40;;;13.10;99.90;;;;;;5024020;28;20465;-42
2022/09/18 10:55:06;;;;;;;4.18;0.85;;;13.00;99.90;;;;;;5032899;28;20462;-40
2022/09/18 10:57:36;;;;;;;4.22;2.75;;;13.00;99.90;;;;;;5030517;28;20493;-41
2022/09/18 11:00:23;;;;;;;9.02;1.20;;;13.00;99.90;;;;;;5026661;28;20478;-40
2022/09/18 11:03:11;;;;;;;7.85;1.15;;;13.00;99.90;;;;;;5025421;28;20120;-39
2022/09/18 11:05:48;;;;;;;4.50;0.60;;;13.00;99.90;;;;;;5015196;28;20037;-34
2022/09/18 11:08:16;;;;;;;9.60;0.68;;;12.90;99.90;;;;;;5011998;28;20033;-36
2022/09/18 11:10:47;;;;;;;3.08;0.60;;;12.90;99.90;;;;;;5026045;28;20124;-40
2022/09/18 11:13:22;;;;;;;4.70;0.55;;;12.90;99.90;;;;;;5033412;28;20509;-40
2022/09/18 11:15:59;;;;;;;1.35;0.45;;;12.90;99.90;;;;;;5024570;28;20033;-41
2022/09/18 11:18:25;;;;;;;4.45;1.05;;;12.90;99.90;;;;;;5018961;28;20036;-37
2022/09/18 11:20:54;;;;;;;4.53;0.55;;;12.90;99.90;;;;;;5014351;28;20064;-41
2022/09/18 11:23:28;;;;;;;3.10;0.80;;;12.90;99.90;;;;;;5020736;28;20065;-41
2022/09/18 11:26:25;;;;;;;2.75;0.98;;;12.90;99.90;;;;;;5013810;28;20040;-42
2022/09/18 11:29:15;;;;;;;0.30;0.30;;;12.90;99.90;;;;;;5011703;28;20053;-39
2022/09/18 11:31:56;;;;;;;7.07;0.52;;;12.90;99.90;;;;;;5019073;28;20075;-42
2022/09/18 11:34:47;;;;;;;0.90;0.43;;;12.90;99.90;;;;;;5011031;28;20018;-42
2022/09/18 11:37:20;;;;;;;2.67;0.38;;;13.00;99.90;;;;;;5013174;28;20073;-45
2022/09/18 11:39:57;;;;;;;3.50;0.52;;;13.00;99.90;;;;;;5017710;28;20038;-40
2022/09/18 11:42:23;;;;;;;7.32;1.10;;;13.00;99.90;;;;;;5023651;28;20037;-41
2022/09/18 11:44:51;;;;;;;4.50;0.73;;;13.00;99.90;;;;;;5022116;28;20025;-42
2022/09/18 11:47:38;;;;;;;3.25;0.77;;;13.00;99.90;;;;;;5031525;28;20481;-41
2022/09/18 11:50:20;;;;;;;7.60;0.47;;;13.10;99.90;;;;;;5063474;28;20061;-44
2022/09/18 11:52:56;;;;;;;6.72;0.88;;;13.10;99.90;;;;;;5035170;28;20029;-37
2022/09/18 11:55:39;;;;;;;6.47;0.77;;;13.10;99.90;;;;;;5033166;28;20496;-33
2022/09/18 11:58:33;;;;;;;5.63;0.63;;;13.20;99.90;;;;;;5032159;28;20051;-33
2022/09/18 12:01:32;;;;;;;2.63;0.70;;;13.20;99.90;;;;;;5020975;28;20033;-37
2022/09/18 12:04:15;;;;;;;1.05;0.45;;;13.30;99.90;;;;;;5026995;28;20028;-32
2022/09/18 12:07:04;;;;;;;5.13;1.08;;;13.30;99.90;;;;;;5016522;28;20432;-41
2022/09/18 12:09:54;;;;;;;4.90;0.88;;;13.30;99.90;;;;;;5014240;28;20470;-35
2022/09/18 12:12:33;;;;;;;6.18;0.50;;;13.30;99.90;;;;;;5035487;28;20022;-65
2022/09/18 12:15:27;;;;;;;8.50;1.25;;;13.40;99.90;;;;;;5034702;28;20028;-40
2022/09/18 12:17:55;;;;;;;3.92;0.50;;;13.40;99.90;;;;;;5049906;28;20088;-39
2022/09/18 12:20:26;;;;;;;0.73;0.43;;;13.40;99.90;;;;;;5034438;28;20524;-41
2022/09/18 12:22:55;;;;;;;4.85;0.82;;;13.40;99.90;;;;;;5033154;28;20021;-40
2022/09/18 12:25:45;;;;;;;3.47;0.70;;;13.40;99.90;;;;;;5034374;28;20025;-41
2022/09/18 12:28:44;;;;;;;3.72;1.00;;;13.40;99.90;;;;;;5027842;28;20457;-42
2022/09/18 12:31:24;;;;;;;3.83;0.60;;;13.40;99.90;;;;;;5028316;28;20474;-40
2022/09/18 12:34:10;;;;;;;8.80;0.57;;;13.40;99.90;;;;;;5035128;28;20032;-38
2022/09/18 12:37:23;;;;;;;1.83;0.63;;;13.40;99.90;;;;;;5028114;28;20621;-42
2022/09/18 12:40:09;;;;;;;1.88;0.90;;;13.50;99.90;;;;;;5029391;28;20049;-46
2022/09/18 12:42:48;;;;;;;4.05;0.73;;;13.40;99.90;;;;;;5051049;28;20545;-38
2022/09/18 12:45:31;;;;;;;4.30;0.45;;;13.30;99.90;;;;;;5016919;28;20026;-40
2022/09/18 12:48:00;;;;;;;3.15;1.27;;;13.30;99.90;;;;;;5021648;28;20056;-39
2022/09/18 12:50:29;;;;;;;15.32;0.88;;;13.30;99.90;;;;;;5030015;28;20108;-37
2022/09/18 12:53:17;;;;;;;7.32;0.95;;;13.20;99.90;;;;;;5021566;28;20022;-42
2022/09/18 12:55:46;;;;;;;4.22;0.55;;;13.10;99.90;;;;;;5018559;28;20525;-45
2022/09/18 12:58:30;;;;;;;4.25;0.90;;;13.00;99.90;;;;;;5016092;28;20764;-58
2022/09/18 13:01:00;;;;;;;1.58;0.40;;;12.90;99.90;;;;;;5014197;28;20456;-34
2022/09/18 13:03:33;;;;;;;1.52;0.43;;;12.80;99.90;;;;;;5014718;28;20375;-39
2022/09/18 13:06:14;;;;;;;5.18;1.05;;;12.60;99.90;;;;;;5014472;28;20029;-41
2022/09/18 13:08:57;;;;;;;3.42;0.77;;;12.40;99.90;;;;;;5015520;28;20049;-42
2022/09/18 13:11:37;;;;;;;0.68;0.30;;;12.30;99.90;;;;;;5013371;28;20025;-40
2022/09/18 13:14:34;;;;;;;5.28;0.70;;;12.30;99.90;;;;;;5016799;28;20476;-40